Airfield :
LOGIN :

Register | Disclaimer

   EN    FR    IT 

 










Legend :    VFR   Marginal VFR   IFR   Intensive IFR   Very Intensive IFR
Visi :
Ceiling :
>= 8 km
>= 3000ft
5 to 8 km
1000 to 3000 ft
1500m to 5 km
500 to 1000 ft
800 to 1500m
200 to 500 ft
< 800m
< 200 ft
Symbols :   Thunderstorms  Fog  Heavy snow  Heavy precipitations  Wind > 20 kt
SIGMETs :     Misc.  Thunderstorms  Icing  Turbulence  Mountain Waves  Volcanic Ashes






- Airport Elevation : 53 ft
- IATA code : HAM


EDDH - Hamburg

CURRENT METAR :
  • 280920Z 25012KT 9999 FEW012 05/02 Q1011 R88/D NOSIG

EXPIRED METARs :
  • 280850Z 25011KT 9999 FEW008 04/02 Q1011 R88/19//95 NOSIG
  • 280820Z 25011KT 220V280 9999 -SHRA FEW008 SCT010CB 04/02 Q1011 R88/19//95 NOSIG
  • 280750Z 25009KT 9999 SCT008 03/02 Q1010 R88/19//95 NOSIG
  • 280720Z 25007KT 9999 SCT007 03/01 Q1010 R88/19//95 NOSIG
  • 280650Z 24007KT 9999 FEW008 02/01 Q1009 R88/19//95 NOSIG

TAF TAF EDDH
Valid from the 28 at 06:00 until the 29 at 12:00 UTC


280500Z 2806/2912 26010KT 9999 SCT025
PROB30
TEMPO 2808/2810 BKN014
TEMPO 2810/2814 27015G25KT
BECMG 2816/2818 19006KT
BECMG 2822/2824 17011KT
BECMG 2823/2902 BKN007
PROB40
TEMPO 2900/2902 2000 SNRA BKN003
TEMPO 2902/2906 RA
PROB30
TEMPO 2902/2906 4000 BKN004
BECMG 2907/2910 SCT015
TEMPO 2910/2912 20015G25KT



MET'MAP, your aeronautical weather chart ! - Copyright ORBIFLY December 2007 - Disclaimer

ORBIFLY MET'MAP TEAM :

Programming & Development : Alexandra Zaïnal
Concept & original design : Baudouin d'Aumeries
Assistance for programming : Marc-Olivier Méhu
Technical & hardware support : Manuel Goepfert

Contact : metmap@orbifly.com




SOURCES & CREDITS :

   NOAA